createdAt,value
2022-08-17T00:00:34.672Z,99284.56
2022-08-17T00:03:06.425Z,99279.44
2022-08-17T00:05:38.850Z,99282.09
2022-08-17T00:08:06.552Z,99281.16
2022-08-17T00:10:34.740Z,99275.91
2022-08-17T00:13:06.885Z,99275.25
2022-08-17T00:15:34.592Z,99272.78
2022-08-17T00:18:02.225Z,99273.59
2022-08-17T00:20:32.094Z,99278.84
2022-08-17T00:23:10.081Z,99288.31
2022-08-17T00:25:38.371Z,99289.06
2022-08-17T00:28:06.381Z,99281.16
2022-08-17T00:30:51.235Z,99275.00
2022-08-17T00:33:24.714Z,99272.41
2022-08-17T00:35:53.669Z,99271.69
2022-08-17T00:38:23.934Z,99271.06
2022-08-17T00:40:55.962Z,99270.72
2022-08-17T00:43:32.547Z,99264.91
2022-08-17T00:46:02.572Z,99267.78
2022-08-17T00:48:31.098Z,99270.44
2022-08-17T00:51:08.163Z,99264.53
2022-08-17T00:53:41.819Z,99265.44
2022-08-17T00:56:14.271Z,99266.97
2022-08-17T00:58:42.325Z,99270.59
2022-08-17T01:01:12.577Z,99264.63
2022-08-17T01:03:49.741Z,99253.81
2022-08-17T01:06:17.606Z,99262.50
2022-08-17T01:08:46.717Z,99262.72
2022-08-17T01:11:14.344Z,99257.53
2022-08-17T01:13:44.298Z,99249.69
2022-08-17T01:16:17.255Z,99256.78
2022-08-17T01:18:46.739Z,99253.63
2022-08-17T01:21:21.872Z,99248.53
2022-08-17T01:23:50.893Z,99250.28
2022-08-17T01:26:19.611Z,99250.63
2022-08-17T01:28:54.743Z,99254.28
2022-08-17T01:31:26.248Z,99259.47
2022-08-17T01:33:53.987Z,99260.28
2022-08-17T01:36:22.375Z,99263.78
2022-08-17T01:38:51.410Z,99256.94
2022-08-17T01:41:22.961Z,99269.72
2022-08-17T01:43:54.971Z,99264.44
2022-08-17T01:46:26.880Z,99263.59
2022-08-17T01:48:55.556Z,99262.69
2022-08-17T01:51:23.508Z,99277.41
2022-08-17T01:53:58.382Z,99274.69
2022-08-17T01:56:28.943Z,99280.84
2022-08-17T01:58:57.138Z,99281.63
2022-08-17T02:01:28.993Z,99271.88
2022-08-17T02:04:00.943Z,99274.56
2022-08-17T02:06:44.826Z,99267.53
2022-08-17T02:09:23.230Z,99267.50
2022-08-17T02:11:54.136Z,99268.41
2022-08-17T02:14:22.015Z,99262.13
2022-08-17T02:16:50.225Z,99264.72
2022-08-17T02:19:18.404Z,99269.16
2022-08-17T02:21:49.108Z,99266.38
2022-08-17T02:25:00.288Z,99270.59
2022-08-17T02:27:08.913Z,99266.97
2022-08-17T02:29:37.127Z,99265.28
2022-08-17T02:32:05.445Z,99258.50
2022-08-17T02:34:33.712Z,99257.06
2022-08-17T02:37:01.315Z,99266.38
2022-08-17T02:39:30.359Z,99266.53
2022-08-17T02:42:02.599Z,99259.66
2022-08-17T02:44:38.717Z,99262.31
2022-08-17T02:47:08.222Z,99253.56
2022-08-17T02:49:35.970Z,99259.03
2022-08-17T02:52:05.284Z,99259.16
2022-08-17T02:54:41.386Z,99261.63
2022-08-17T02:57:09.997Z,99268.47
2022-08-17T02:59:37.680Z,99262.22
2022-08-17T03:02:05.483Z,99264.88
2022-08-17T03:04:35.501Z,99267.53
2022-08-17T03:07:04.103Z,99272.78
2022-08-17T03:09:31.858Z,99282.25
2022-08-17T03:12:07.078Z,99292.81
2022-08-17T03:14:41.292Z,99302.75
2022-08-17T03:17:10.897Z,99325.63
2022-08-17T03:19:43.496Z,99337.28
2022-08-17T03:22:36.128Z,99354.63
2022-08-17T03:24:59.607Z,99348.44
2022-08-17T03:27:28.600Z,99349.22
2022-08-17T03:29:56.244Z,99342.38
2022-08-17T03:32:23.844Z,99356.25
2022-08-17T03:34:51.492Z,99355.88
2022-08-17T03:37:19.129Z,99355.78
2022-08-17T03:39:47.237Z,99347.25
2022-08-17T03:42:32.460Z,99353.25
2022-08-17T03:45:03.298Z,99349.88
2022-08-17T03:47:48.757Z,99347.00
2022-08-17T03:50:35.351Z,99352.22
2022-08-17T03:53:24.686Z,99347.81
2022-08-17T03:56:10.030Z,99355.69
2022-08-17T03:58:37.841Z,99353.09
2022-08-17T04:01:07.727Z,99348.84
2022-08-17T04:03:35.961Z,99352.41
2022-08-17T04:06:03.650Z,99362.63
2022-08-17T04:08:31.563Z,99374.63
2022-08-17T04:11:01.455Z,99379.97
2022-08-17T04:13:29.177Z,99379.97
2022-08-17T04:15:57.240Z,99377.41
2022-08-17T04:18:26.481Z,99373.25
2022-08-17T04:20:54.752Z,99377.81
2022-08-17T04:23:28.213Z,99369.88
2022-08-17T04:25:55.801Z,99370.66
2022-08-17T04:28:23.457Z,99370.56
2022-08-17T04:30:51.148Z,99370.50
2022-08-17T04:33:21.796Z,99377.41
2022-08-17T04:35:53.924Z,99371.63
2022-08-17T04:38:26.239Z,99375.06
2022-08-17T04:41:12.454Z,99383.91
2022-08-17T04:43:42.093Z,99375.38
2022-08-17T04:46:12.756Z,99375.56
2022-08-17T04:48:44.006Z,99391.38
2022-08-17T04:51:16.219Z,99387.03
2022-08-17T04:53:45.674Z,99387.63
2022-08-17T04:56:21.559Z,99381.47
2022-08-17T04:58:51.483Z,99379.72
2022-08-17T05:01:23.794Z,99385.75
2022-08-17T05:03:52.287Z,99378.72
2022-08-17T05:06:21.654Z,99385.44
2022-08-17T05:08:49.500Z,99381.78
2022-08-17T05:11:17.128Z,99391.13
2022-08-17T05:13:44.795Z,99388.41
2022-08-17T05:16:12.914Z,99384.91
2022-08-17T05:18:40.560Z,99389.25
2022-08-17T05:21:08.989Z,99383.97
2022-08-17T05:23:42.651Z,99371.09
2022-08-17T05:26:20.425Z,99372.75
2022-08-17T05:28:57.092Z,99373.38
2022-08-17T05:31:27.985Z,99370.78
2022-08-17T05:33:55.742Z,99373.16
2022-08-17T05:36:41.708Z,99382.38
2022-08-17T05:39:16.563Z,99378.47
2022-08-17T05:41:46.523Z,99377.38
2022-08-17T05:44:14.124Z,99385.03
2022-08-17T05:46:48.547Z,99375.22
2022-08-17T05:49:18.775Z,99375.97
2022-08-17T05:52:11.207Z,99381.69
2022-08-17T05:54:58.884Z,99373.69
2022-08-17T05:57:47.417Z,99375.31
2022-08-17T06:00:26.287Z,99384.59
2022-08-17T06:03:25.050Z,99388.00
2022-08-17T06:06:18.076Z,99390.34
2022-08-17T06:08:51.933Z,99389.09
2022-08-17T06:11:29.723Z,99381.09
2022-08-17T06:14:10.204Z,99377.16
2022-08-17T06:16:41.802Z,99369.19
2022-08-17T06:19:14.543Z,99380.41
2022-08-17T06:21:45.967Z,99386.09
2022-08-17T06:24:25.431Z,99398.75
2022-08-17T06:26:56.257Z,99402.25
2022-08-17T06:29:37.205Z,99413.75
2022-08-17T06:32:06.644Z,99411.56
2022-08-17T06:34:34.825Z,99413.19
2022-08-17T06:37:15.428Z,99413.09
2022-08-17T06:39:50.668Z,99405.47
2022-08-17T06:43:04.105Z,99402.53
2022-08-17T06:45:22.696Z,99412.72
2022-08-17T06:47:57.370Z,99414.28
2022-08-17T06:50:30.687Z,99403.50
2022-08-17T06:53:00.550Z,99390.13
2022-08-17T06:55:37.843Z,99376.78
2022-08-17T06:58:15.902Z,99378.38
2022-08-17T07:00:48.030Z,99387.28
2022-08-17T07:03:26.360Z,99374.06
2022-08-17T07:05:57.938Z,99379.84
2022-08-17T07:08:35.382Z,99381.31
2022-08-17T07:11:07.705Z,99376.72
2022-08-17T07:13:51.057Z,99386.22
2022-08-17T07:16:22.910Z,99387.13
2022-08-17T07:18:53.187Z,99382.50
2022-08-17T07:21:39.384Z,99380.47
2022-08-17T07:24:29.748Z,99390.44
2022-08-17T07:27:13.698Z,99386.50
2022-08-17T07:29:47.656Z,99392.13
2022-08-17T07:32:19.417Z,99392.59
2022-08-17T07:35:11.728Z,99398.16
2022-08-17T07:37:41.542Z,99398.66
2022-08-17T07:40:22.605Z,99400.75
2022-08-17T07:43:05.178Z,99409.72
2022-08-17T07:45:54.069Z,99404.31
2022-08-17T07:48:25.909Z,99408.91
2022-08-17T07:50:53.949Z,99408.25
2022-08-17T07:53:24.060Z,99401.34
2022-08-17T07:55:53.465Z,99403.00
2022-08-17T07:58:24.019Z,99396.75
2022-08-17T08:01:08.688Z,99409.22
2022-08-17T08:03:43.201Z,99417.56
2022-08-17T08:06:20.666Z,99427.50
2022-08-17T08:08:54.845Z,99424.28
2022-08-17T08:11:34.434Z,99420.50
2022-08-17T08:14:28.596Z,99422.81
2022-08-17T08:17:00.132Z,99430.44
2022-08-17T08:19:29.238Z,99445.97
2022-08-17T08:22:03.392Z,99444.50
2022-08-17T08:24:50.150Z,99449.09
2022-08-17T08:27:30.539Z,99426.88
2022-08-17T08:30:05.295Z,99440.94
2022-08-17T08:32:54.312Z,99435.94
2022-08-17T08:35:30.898Z,99421.06
2022-08-17T08:38:07.744Z,99430.91
2022-08-17T08:40:52.218Z,99428.06
2022-08-17T08:43:28.185Z,99445.34
2022-08-17T08:46:05.741Z,99434.81
2022-08-17T08:49:10.138Z,99424.50
2022-08-17T08:51:51.645Z,99447.50
2022-08-17T08:54:33.321Z,99450.94
2022-08-17T08:57:32.927Z,99464.78
2022-08-17T09:00:12.722Z,99466.72
2022-08-17T09:03:04.609Z,99443.50
2022-08-17T09:05:53.354Z,99442.56
2022-08-17T09:08:31.689Z,99440.78
2022-08-17T09:11:05.970Z,99429.19
2022-08-17T09:13:44.734Z,99434.56
2022-08-17T09:16:17.282Z,99434.81
2022-08-17T09:19:01.392Z,99444.22
2022-08-17T09:21:43.066Z,99449.00
2022-08-17T09:24:21.487Z,99443.75
2022-08-17T09:26:53.880Z,99439.09
2022-08-17T09:29:25.408Z,99450.34
2022-08-17T09:31:57.229Z,99455.72
2022-08-17T09:34:33.371Z,99449.38
2022-08-17T09:37:16.322Z,99436.97
2022-08-17T09:39:51.165Z,99430.78
2022-08-17T09:42:24.803Z,99440.28
2022-08-17T09:44:58.927Z,99444.19
2022-08-17T09:47:32.524Z,99422.97
2022-08-17T09:50:06.937Z,99433.06
2022-08-17T09:52:36.488Z,99435.16
2022-08-17T09:55:06.490Z,99428.56
2022-08-17T09:57:47.908Z,99444.19
2022-08-17T10:00:23.633Z,99520.78
2022-08-17T10:03:08.279Z,99527.09
2022-08-17T10:05:43.140Z,99538.06
2022-08-17T10:08:25.434Z,99545.81
2022-08-17T10:11:12.511Z,99546.47
2022-08-17T10:13:47.150Z,99551.66
2022-08-17T10:16:28.348Z,99557.03
2022-08-17T10:19:05.938Z,99578.88
2022-08-17T10:22:01.252Z,99589.97
2022-08-17T10:25:23.627Z,99589.59
2022-08-17T10:27:55.071Z,99598.03
2022-08-17T10:30:25.869Z,99593.63
2022-08-17T10:32:56.302Z,99585.81
2022-08-17T10:35:35.317Z,99585.38
2022-08-17T10:38:19.508Z,99588.78
2022-08-17T10:40:58.800Z,99580.97
2022-08-17T10:44:37.251Z,99576.03
2022-08-17T10:46:52.249Z,99573.09
2022-08-17T10:49:38.366Z,99573.97
2022-08-17T10:52:49.883Z,99593.59
2022-08-17T10:55:20.229Z,99597.38
2022-08-17T10:57:49.455Z,99593.56
2022-08-17T11:00:57.617Z,99585.94
2022-08-17T11:03:27.583Z,99579.00
2022-08-17T11:06:10.915Z,99565.00
2022-08-17T11:09:20.764Z,99564.19
2022-08-17T11:12:20.872Z,99573.28
2022-08-17T11:15:04.895Z,99560.88
2022-08-17T11:18:04.442Z,99561.56
2022-08-17T11:20:56.194Z,99571.44
2022-08-17T11:23:50.213Z,99578.56
2022-08-17T11:26:27.401Z,99565.69
2022-08-17T11:28:59.963Z,99570.25
2022-08-17T11:31:39.291Z,99569.03
2022-08-17T11:34:15.053Z,99566.59
2022-08-17T11:37:02.467Z,99564.88
2022-08-17T11:39:50.658Z,99556.53
2022-08-17T11:42:31.102Z,99555.22
2022-08-17T11:45:00.962Z,99540.53
2022-08-17T11:48:16.378Z,99538.69
2022-08-17T11:51:08.343Z,99525.03
2022-08-17T11:56:59.090Z,99524.69
2022-08-17T11:59:55.857Z,99513.94
2022-08-17T12:02:35.064Z,99506.56
2022-08-17T12:05:22.871Z,99501.16
2022-08-17T12:07:53.508Z,99469.59
2022-08-17T12:10:30.550Z,99456.06
2022-08-17T12:12:59.817Z,99468.50
2022-08-17T12:15:35.473Z,99468.94
2022-08-17T12:18:03.113Z,99462.19
2022-08-17T12:20:34.536Z,99466.97
2022-08-17T12:23:13.331Z,99474.03
2022-08-17T12:25:49.213Z,99480.66
2022-08-17T12:28:27.483Z,99476.31
2022-08-17T12:31:00.249Z,99490.16
2022-08-17T12:33:28.965Z,99483.22
2022-08-17T12:36:00.509Z,99480.19
2022-08-17T12:38:32.342Z,99479.44
2022-08-17T12:41:20.661Z,99475.25
2022-08-17T12:43:56.751Z,99471.66
2022-08-17T12:46:25.799Z,99473.56
2022-08-17T12:48:58.848Z,99466.53
2022-08-17T12:51:28.865Z,99477.41
2022-08-17T12:53:56.671Z,99465.75
2022-08-17T12:56:24.609Z,99459.47
2022-08-17T12:58:55.452Z,99467.31
2022-08-17T13:01:27.017Z,99465.25
2022-08-17T13:03:59.614Z,99464.94
2022-08-17T13:06:30.198Z,99466.75
2022-08-17T13:08:57.915Z,99466.81
2022-08-17T13:11:25.860Z,99467.50
2022-08-17T13:13:55.953Z,99462.88
2022-08-17T13:16:27.331Z,99458.13
2022-08-17T13:19:05.158Z,99447.28
2022-08-17T13:21:34.177Z,99434.22
2022-08-17T13:24:05.816Z,99434.00
2022-08-17T13:26:36.427Z,99431.34
2022-08-17T13:29:07.557Z,99442.41
2022-08-17T13:31:51.901Z,99442.09
2022-08-17T13:34:38.694Z,99439.59
2022-08-17T13:37:30.053Z,99434.47
2022-08-17T13:40:00.630Z,99431.38
2022-08-17T13:42:34.067Z,99414.94
2022-08-17T13:45:51.673Z,99416.16
2022-08-17T13:48:31.963Z,99411.41
2022-08-17T13:51:23.823Z,99394.66
2022-08-17T13:53:59.170Z,99402.28
2022-08-17T13:56:38.642Z,99392.72
2022-08-17T13:59:12.192Z,99385.81
2022-08-17T14:01:42.796Z,99388.16
2022-08-17T14:04:15.215Z,99388.78
2022-08-17T14:06:52.173Z,99379.44
2022-08-17T14:09:22.632Z,99380.41
2022-08-17T14:11:51.933Z,99381.09
2022-08-17T14:14:19.803Z,99378.69
2022-08-17T14:16:47.493Z,99370.84
2022-08-17T14:19:16.464Z,99366.03
2022-08-17T14:21:47.373Z,99359.91
2022-08-17T14:24:22.244Z,99352.56
2022-08-17T14:26:52.206Z,99357.19
2022-08-17T14:29:20.555Z,99352.97
2022-08-17T14:31:53.397Z,99353.13
2022-08-17T14:34:24.535Z,99349.28
2022-08-17T14:36:52.639Z,99350.09
2022-08-17T14:39:20.727Z,99342.91
2022-08-17T14:41:48.465Z,99342.22
2022-08-17T14:44:16.169Z,99349.69
2022-08-17T14:46:45.363Z,99352.69
2022-08-17T14:49:15.545Z,99360.34
2022-08-17T14:51:44.789Z,99353.09
2022-08-17T14:54:29.407Z,99350.13
2022-08-17T14:57:22.839Z,99359.44
2022-08-17T14:59:54.759Z,99348.56
2022-08-17T15:02:29.977Z,99337.13
2022-08-17T15:05:02.776Z,99343.94
2022-08-17T15:07:31.834Z,99344.97
2022-08-17T15:10:01.523Z,99344.97
2022-08-17T15:12:34.308Z,99348.03
2022-08-17T15:15:04.771Z,99338.50
2022-08-17T15:17:44.578Z,99339.31
2022-08-17T15:20:15.638Z,99327.75
2022-08-17T15:22:46.032Z,99340.75
2022-08-17T15:25:15.073Z,99324.47
2022-08-17T15:27:42.928Z,99331.88
2022-08-17T15:30:11.891Z,99332.84
2022-08-17T15:32:50.632Z,99330.53
2022-08-17T15:35:19.913Z,99329.50
2022-08-17T15:37:57.864Z,99325.75
2022-08-17T15:40:25.959Z,99332.69
2022-08-17T15:42:53.627Z,99327.00
2022-08-17T15:45:26.873Z,99327.81
2022-08-17T15:47:54.537Z,99324.00
2022-08-17T15:50:22.378Z,99324.00
2022-08-17T15:52:57.971Z,99327.09
2022-08-17T15:55:26.944Z,99319.38
2022-08-17T15:57:54.541Z,99320.88
2022-08-17T16:00:23.854Z,99323.91
2022-08-17T16:03:46.051Z,99330.97
2022-08-17T16:05:40.682Z,99322.78
2022-08-17T16:08:10.935Z,99332.38
2022-08-17T16:10:38.917Z,99326.09
2022-08-17T16:13:17.435Z,99328.78
2022-08-17T16:15:51.064Z,99318.19
2022-08-17T16:18:26.358Z,99316.50
2022-08-17T16:20:54.878Z,99316.72
2022-08-17T16:23:24.307Z,99317.41
2022-08-17T16:25:53.894Z,99318.06
2022-08-17T16:28:35.812Z,99331.34
2022-08-17T16:31:05.773Z,99328.41
2022-08-17T16:33:36.585Z,99318.75
2022-08-17T16:36:04.828Z,99318.22
2022-08-17T16:38:34.045Z,99317.50
2022-08-17T16:41:01.767Z,99314.34
2022-08-17T16:43:29.910Z,99313.00
2022-08-17T16:45:57.625Z,99317.53
2022-08-17T16:48:25.189Z,99322.41
2022-08-17T16:51:02.889Z,99313.38
2022-08-17T16:53:31.641Z,99313.59
2022-08-17T16:56:00.638Z,99308.47
2022-08-17T16:58:28.399Z,99308.66
2022-08-17T17:00:59.331Z,99311.16
2022-08-17T17:03:29.916Z,99304.97
2022-08-17T17:06:07.672Z,99300.53
2022-08-17T17:08:43.631Z,99292.75
2022-08-17T17:11:17.913Z,99288.44
2022-08-17T17:13:50.926Z,99284.34
2022-08-17T17:16:21.641Z,99284.72
2022-08-17T17:19:02.677Z,99281.53
2022-08-17T17:21:38.120Z,99291.75
2022-08-17T17:24:10.969Z,99290.38
2022-08-17T17:26:51.285Z,99286.91
2022-08-17T17:29:29.353Z,99282.25
2022-08-17T17:32:21.355Z,99281.84
2022-08-17T17:34:54.355Z,99292.81
2022-08-17T17:37:28.245Z,99289.94
2022-08-17T17:40:00.880Z,99282.59
2022-08-17T17:42:32.638Z,99282.81
2022-08-17T17:45:08.382Z,99281.13
2022-08-17T17:47:37.249Z,99287.69
2022-08-17T17:50:07.819Z,99287.09
2022-08-17T17:52:47.322Z,99289.34
2022-08-17T17:55:24.969Z,99290.91
2022-08-17T17:58:03.603Z,99283.19
2022-08-17T18:00:37.870Z,99288.31
2022-08-17T18:03:26.895Z,99290.59
2022-08-17T18:06:15.022Z,99299.22
2022-08-17T18:09:03.036Z,99304.91
2022-08-17T18:11:51.811Z,99311.34
2022-08-17T18:14:31.613Z,99309.19
2022-08-17T18:17:01.246Z,99315.63
2022-08-17T18:19:31.418Z,99317.81
2022-08-17T18:22:06.771Z,99302.44
2022-08-17T18:24:37.890Z,99311.84
2022-08-17T18:27:18.590Z,99312.09
2022-08-17T18:29:48.659Z,99307.03
2022-08-17T18:32:26.434Z,99304.91
2022-08-17T18:34:56.157Z,99314.84
2022-08-17T18:37:37.446Z,99317.03
2022-08-17T18:40:29.252Z,99316.56
2022-08-17T18:43:03.130Z,99318.56
2022-08-17T18:45:41.805Z,99326.03
2022-08-17T18:48:21.043Z,99317.69
2022-08-17T18:50:48.991Z,99314.78
2022-08-17T18:53:35.903Z,99313.38
2022-08-17T18:56:27.113Z,99316.56
2022-08-17T18:59:11.954Z,99315.31
2022-08-17T19:01:52.661Z,99321.56
2022-08-17T19:04:34.651Z,99327.13
2022-08-17T19:07:12.752Z,99335.38
2022-08-17T19:09:45.016Z,99334.09
2022-08-17T19:12:27.144Z,99339.78
2022-08-17T19:14:57.757Z,99349.09
2022-08-17T19:17:35.241Z,99354.78
2022-08-17T19:20:10.411Z,99364.13
2022-08-17T19:22:52.106Z,99368.94
2022-08-17T19:25:25.673Z,99365.53
2022-08-17T19:27:58.550Z,99365.72
2022-08-17T19:30:27.694Z,99360.75
2022-08-17T19:32:58.363Z,99362.81
2022-08-17T19:35:34.869Z,99364.94
2022-08-17T19:38:13.136Z,99376.47
2022-08-17T19:40:55.188Z,99368.00
2022-08-17T19:43:37.837Z,99362.06
2022-08-17T19:46:15.633Z,99364.94
2022-08-17T19:48:52.056Z,99361.66
2022-08-17T19:51:30.728Z,99369.88
2022-08-17T19:54:06.206Z,99369.38
2022-08-17T19:56:45.050Z,99365.31
2022-08-17T19:59:21.206Z,99369.88
2022-08-17T20:01:53.787Z,99363.94
2022-08-17T20:04:36.530Z,99351.81
2022-08-17T20:07:07.916Z,99350.22
2022-08-17T20:09:38.424Z,99351.25
2022-08-17T20:12:10.343Z,99352.28
2022-08-17T20:14:53.629Z,99357.19
2022-08-17T20:17:25.965Z,99362.19
2022-08-17T20:20:04.538Z,99361.41
2022-08-17T20:22:51.996Z,99359.69
2022-08-17T20:25:29.927Z,99372.00
2022-08-17T20:28:06.213Z,99373.94
2022-08-17T20:30:38.297Z,99367.97
2022-08-17T20:33:08.709Z,99374.22
2022-08-17T20:36:02.980Z,99379.72
2022-08-17T20:38:43.713Z,99383.28
2022-08-17T20:41:16.771Z,99391.44
2022-08-17T20:43:51.307Z,99395.28
2022-08-17T20:46:35.448Z,99398.13
2022-08-17T20:49:19.927Z,99394.72
2022-08-17T20:52:01.786Z,99394.72
2022-08-17T20:54:44.549Z,99399.03
2022-08-17T20:57:46.293Z,99396.34
2022-08-17T21:00:40.334Z,99398.03
2022-08-17T21:03:50.242Z,99400.56
2022-08-17T21:06:23.130Z,99406.56
2022-08-17T21:08:57.802Z,99414.16
2022-08-17T21:12:04.147Z,99424.59
2022-08-17T21:14:58.533Z,99423.78
2022-08-17T21:17:43.902Z,99427.22
2022-08-17T21:20:25.647Z,99426.31
2022-08-17T21:23:09.753Z,99423.69
2022-08-17T21:25:57.078Z,99428.94
2022-08-17T21:28:37.140Z,99428.94
2022-08-17T21:31:34.214Z,99430.75
2022-08-17T21:34:29.522Z,99442.94
2022-08-17T21:37:31.516Z,99447.25
2022-08-17T21:40:02.261Z,99455.88
2022-08-17T21:42:33.305Z,99440.94
2022-08-17T21:45:10.833Z,99452.28
2022-08-17T21:47:48.629Z,99454.16
2022-08-17T21:50:20.321Z,99453.47
2022-08-17T21:52:48.659Z,99458.72
2022-08-17T21:55:23.322Z,99456.91
2022-08-17T21:57:52.757Z,99453.59
2022-08-17T22:00:33.811Z,99464.44
2022-08-17T22:03:04.178Z,99464.38
2022-08-17T22:05:34.945Z,99474.66
2022-08-17T22:08:08.665Z,99482.25
2022-08-17T22:10:46.207Z,99492.47
2022-08-17T22:13:22.028Z,99501.06
2022-08-17T22:16:28.088Z,99501.06
2022-08-17T22:18:57.834Z,99509.97
2022-08-17T22:21:26.212Z,99513.56
2022-08-17T22:24:06.176Z,99518.75
2022-08-17T22:27:00.739Z,99527.25
2022-08-17T22:29:57.558Z,99527.25
2022-08-17T22:32:47.619Z,99531.75
2022-08-17T22:35:43.047Z,99544.84
2022-08-17T22:38:33.225Z,99548.38
2022-08-17T22:41:25.376Z,99574.59
2022-08-17T22:43:57.281Z,99566.63
2022-08-17T22:46:26.661Z,99571.97
2022-08-17T22:48:57.851Z,99571.25
2022-08-17T22:51:29.521Z,99560.84
2022-08-17T22:54:18.057Z,99566.13
2022-08-17T22:57:18.743Z,99572.25
2022-08-17T22:59:49.768Z,99585.66
2022-08-17T23:02:22.673Z,99583.03
2022-08-17T23:04:53.340Z,99589.16
2022-08-17T23:07:22.203Z,99596.38
2022-08-17T23:09:51.906Z,99608.53
2022-08-17T23:12:26.186Z,99612.16
2022-08-17T23:15:00.459Z,99610.47
2022-08-17T23:17:33.926Z,99597.53
2022-08-17T23:20:05.858Z,99590.47
2022-08-17T23:22:34.068Z,99581.84
2022-08-17T23:25:01.692Z,99592.41
2022-08-17T23:27:29.588Z,99578.44
2022-08-17T23:29:57.236Z,99576.75
2022-08-17T23:32:26.212Z,99568.91
2022-08-17T23:34:55.141Z,99568.06
2022-08-17T23:37:22.761Z,99559.47
2022-08-17T23:39:50.380Z,99563.34
2022-08-17T23:42:21.943Z,99553.31
2022-08-17T23:44:49.999Z,99570.88
2022-08-17T23:47:17.863Z,99560.66
2022-08-17T23:49:45.704Z,99553.78
2022-08-17T23:52:16.750Z,99555.50
2022-08-17T23:54:46.745Z,99558.13
2022-08-17T23:57:17.288Z,99560.63
2022-08-17T23:59:45.671Z,99564.09
